Time;durP1;ratioP1;P1;durP2;ratioP2;P2;SDS_P1;SDS_P2;PMS_P1;PMS_P2;Temp;Humidity;BMP_temperature;BMP_pressure;BME280_temperature;BME280_humidity;BME280_pressure;Samples;Min_cycle;Max_cycle;Signal;HPM_P1;HPM_P2
2023/05/18 05:00:34;;;;;;;8.77;6.97;;;9.00;97.20;;;;;;1727943;28;20258;-71
2023/05/18 05:01:25;;;;;;;8.40;6.25;;;9.00;97.20;;;;;;1727984;28;20200;-71
2023/05/18 05:02:17;;;;;;;9.85;7.90;;;9.00;97.20;;;;;;1727943;28;20193;-72
2023/05/18 05:03:08;;;;;;;10.00;7.82;;;9.10;97.20;;;;;;1727999;28;20668;-71
2023/05/18 05:03:59;;;;;;;9.10;7.07;;;9.10;97.20;;;;;;1727461;28;20631;-71
2023/05/18 05:04:50;;;;;;;7.45;6.65;;;9.10;97.20;;;;;;1727873;28;20205;-71
2023/05/18 05:05:42;;;;;;;8.83;6.50;;;9.20;97.20;;;;;;1729062;28;20212;-71
2023/05/18 05:06:32;;;;;;;8.23;6.85;;;9.20;97.20;;;;;;1727832;28;20245;-70
2023/05/18 05:07:24;;;;;;;8.13;7.03;;;9.20;97.20;;;;;;1727833;28;20214;-71
2023/05/18 05:08:15;;;;;;;7.90;7.10;;;9.20;97.20;;;;;;1727975;28;20207;-71
2023/05/18 05:09:06;;;;;;;11.70;6.90;;;9.20;97.20;;;;;;1727906;28;20206;-71
2023/05/18 05:09:58;;;;;;;10.80;7.22;;;9.30;97.20;;;;;;1727953;28;20224;-71
2023/05/18 05:10:49;;;;;;;10.07;7.30;;;9.30;97.20;;;;;;1727834;28;20224;-71
2023/05/18 05:11:41;;;;;;;11.33;6.97;;;9.30;97.20;;;;;;1727902;28;20203;-71
2023/05/18 05:12:34;;;;;;;11.05;8.18;;;9.30;97.20;;;;;;1727746;28;20454;-71
2023/05/18 05:13:26;;;;;;;10.50;6.93;;;9.30;97.20;;;;;;1727551;28;20263;-71
2023/05/18 05:14:16;;;;;;;7.68;6.70;;;9.40;97.20;;;;;;1727838;28;20205;-71
2023/05/18 05:15:08;;;;;;;8.97;6.80;;;9.40;97.20;;;;;;1727687;28;20200;-71
2023/05/18 05:16:01;;;;;;;11.40;7.47;;;9.40;97.20;;;;;;1727907;28;20586;-72
2023/05/18 05:16:52;;;;;;;7.10;6.40;;;9.40;97.20;;;;;;1727792;28;20227;-72
2023/05/18 05:17:44;;;;;;;10.07;7.13;;;9.40;97.20;;;;;;1727916;28;20303;-71
2023/05/18 05:18:34;;;;;;;9.45;6.90;;;9.40;97.20;;;;;;1727818;28;20223;-71
2023/05/18 05:19:26;;;;;;;9.27;6.70;;;9.40;97.20;;;;;;1727836;28;20196;-71
2023/05/18 05:20:17;;;;;;;9.13;7.20;;;9.40;97.20;;;;;;1727691;28;20200;-71
2023/05/18 05:21:09;;;;;;;7.88;6.85;;;9.50;97.20;;;;;;1727804;28;20232;-71
2023/05/18 05:22:00;;;;;;;7.47;6.68;;;9.50;97.20;;;;;;1730588;28;20200;-70
2023/05/18 05:22:51;;;;;;;9.23;6.53;;;9.50;97.20;;;;;;1734610;28;20200;-72
2023/05/18 05:23:44;;;;;;;9.32;6.50;;;9.50;97.20;;;;;;1734317;28;20231;-71
2023/05/18 05:24:35;;;;;;;8.70;6.75;;;9.50;97.20;;;;;;1734545;28;20203;-72
2023/05/18 05:25:26;;;;;;;8.68;7.10;;;9.60;97.20;;;;;;1734557;28;20199;-71
2023/05/18 05:26:19;;;;;;;9.23;6.70;;;9.60;97.20;;;;;;1734523;28;20209;-71
2023/05/18 05:27:10;;;;;;;10.48;6.90;;;9.60;97.20;;;;;;1734538;28;20461;-71
2023/05/18 05:28:01;;;;;;;7.13;6.50;;;9.60;97.20;;;;;;1734560;28;20238;-71
2023/05/18 05:28:52;;;;;;;7.57;6.47;;;9.60;97.20;;;;;;1734509;28;20449;-71
2023/05/18 05:29:45;;;;;;;11.40;6.00;;;9.70;97.20;;;;;;1734526;28;20214;-74
2023/05/18 05:30:36;;;;;;;7.95;7.05;;;9.70;97.20;;;;;;1734357;28;20607;-74
2023/05/18 05:31:29;;;;;;;12.53;7.27;;;9.70;97.20;;;;;;1734526;28;20200;-71
2023/05/18 05:32:20;;;;;;;6.72;5.90;;;9.80;97.20;;;;;;1734599;28;20227;-71
2023/05/18 05:33:11;;;;;;;9.53;7.17;;;9.80;97.20;;;;;;1734293;28;20191;-72
2023/05/18 05:34:02;;;;;;;8.05;6.88;;;9.80;97.20;;;;;;1734571;28;20639;-71
2023/05/18 05:34:54;;;;;;;7.60;6.70;;;9.90;97.20;;;;;;1734399;28;20563;-72
2023/05/18 05:35:45;;;;;;;6.70;6.00;;;9.90;97.20;;;;;;1734525;28;20207;-71
2023/05/18 05:36:37;;;;;;;10.10;6.77;;;9.90;97.20;;;;;;1734514;28;20210;-71
2023/05/18 05:37:28;;;;;;;9.25;6.05;;;9.90;97.20;;;;;;1734496;28;20208;-71
2023/05/18 05:38:19;;;;;;;7.90;5.60;;;10.00;97.20;;;;;;1734271;28;20196;-71
2023/05/18 05:39:10;;;;;;;10.43;6.53;;;10.00;97.20;;;;;;1727720;28;20931;-71
2023/05/18 05:40:04;;;;;;;8.90;6.17;;;10.00;97.20;;;;;;1727767;28;20699;-72
2023/05/18 05:40:55;;;;;;;10.45;5.80;;;10.10;97.20;;;;;;1727455;28;20217;-71
2023/05/18 05:41:47;;;;;;;7.53;6.73;;;10.10;97.20;;;;;;1727698;28;20200;-71
2023/05/18 05:42:38;;;;;;;9.02;6.45;;;10.10;97.20;;;;;;1727601;28;20211;-70
2023/05/18 05:43:29;;;;;;;8.00;6.27;;;10.10;97.20;;;;;;1727377;28;20488;-71
2023/05/18 05:44:20;;;;;;;7.15;5.90;;;10.10;97.20;;;;;;1727567;28;20208;-71
2023/05/18 05:45:12;;;;;;;8.33;6.20;;;10.20;97.20;;;;;;1727574;28;20206;-71
2023/05/18 05:46:03;;;;;;;8.32;5.53;;;10.20;97.20;;;;;;1727542;28;20606;-71
2023/05/18 05:46:56;;;;;;;7.23;5.93;;;10.20;97.20;;;;;;1727645;28;20223;-71
2023/05/18 05:47:48;;;;;;;9.18;6.45;;;10.30;97.20;;;;;;1727548;28;20482;-71
2023/05/18 05:48:39;;;;;;;7.25;5.60;;;10.30;97.20;;;;;;1727742;28;20200;-73
2023/05/18 05:49:30;;;;;;;8.30;6.22;;;10.30;97.20;;;;;;1727603;28;20583;-71
2023/05/18 05:50:22;;;;;;;8.97;6.23;;;10.40;97.20;;;;;;1727644;28;20564;-71
2023/05/18 05:51:13;;;;;;;9.63;6.20;;;10.40;97.20;;;;;;1727562;28;20205;-71
2023/05/18 05:52:05;;;;;;;10.00;5.80;;;10.40;97.20;;;;;;1727652;28;20204;-72
2023/05/18 05:52:56;;;;;;;12.93;6.80;;;10.50;97.20;;;;;;1727660;28;20205;-71
2023/05/18 05:53:48;;;;;;;9.10;5.93;;;10.50;97.20;;;;;;1727326;28;20223;-71
2023/05/18 05:54:39;;;;;;;8.18;5.85;;;10.50;97.20;;;;;;1728832;28;20216;-71
2023/05/18 05:55:31;;;;;;;9.98;5.93;;;10.60;97.20;;;;;;1734317;28;20206;-71
2023/05/18 05:56:22;;;;;;;8.60;6.05;;;10.60;97.20;;;;;;1734402;28;20199;-74
2023/05/18 05:57:14;;;;;;;7.53;6.70;;;10.60;97.20;;;;;;1734401;28;20204;-73
2023/05/18 05:58:04;;;;;;;8.45;5.80;;;10.70;97.20;;;;;;1734415;28;20583;-71
2023/05/18 05:58:56;;;;;;;6.27;5.67;;;10.70;97.20;;;;;;1734331;28;20554;-71
2023/05/18 05:59:47;;;;;;;9.55;6.35;;;10.70;97.20;;;;;;1734385;28;20442;-70
2023/05/18 06:00:38;;;;;;;8.23;5.67;;;10.70;97.20;;;;;;1734277;28;20230;-72
2023/05/18 06:01:29;;;;;;;9.75;5.78;;;10.80;97.20;;;;;;1734340;28;20212;-74
2023/05/18 06:02:22;;;;;;;8.50;6.20;;;10.80;97.20;;;;;;1734425;28;20208;-74
2023/05/18 06:03:13;;;;;;;7.65;6.72;;;10.80;97.20;;;;;;1734006;28;20207;-74
2023/05/18 06:04:09;;;;;;;6.70;5.60;;;10.80;97.20;;;;;;1734321;28;20218;-72
2023/05/18 06:05:00;;;;;;;8.68;5.40;;;10.90;97.20;;;;;;1734368;28;20200;-71
2023/05/18 06:05:51;;;;;;;7.30;6.03;;;10.90;97.20;;;;;;1734349;28;20227;-71
2023/05/18 06:06:42;;;;;;;7.18;5.18;;;10.90;97.20;;;;;;1734340;28;20206;-71
2023/05/18 06:07:34;;;;;;;7.10;4.80;;;10.90;97.20;;;;;;1734218;28;20204;-71
2023/05/18 06:08:25;;;;;;;7.10;4.78;;;11.00;97.20;;;;;;1734327;28;20447;-71
2023/05/18 06:09:17;;;;;;;8.90;4.40;;;11.00;97.20;;;;;;1734258;28;20201;-72
2023/05/18 06:10:08;;;;;;;5.72;4.47;;;11.00;97.20;;;;;;1734298;28;20957;-71
2023/05/18 06:11:00;;;;;;;10.70;4.73;;;11.10;97.20;;;;;;1734303;28;20583;-71
2023/05/18 06:11:51;;;;;;;5.13;3.85;;;11.10;97.20;;;;;;1732608;28;20449;-72
2023/05/18 06:12:43;;;;;;;8.30;3.97;;;11.10;97.20;;;;;;1734288;28;20200;-72
2023/05/18 06:13:34;;;;;;;6.55;4.30;;;11.10;97.20;;;;;;1733954;28;20235;-71
2023/05/18 06:14:26;;;;;;;9.70;4.40;;;11.10;97.20;;;;;;1734297;28;20210;-72
2023/05/18 06:15:17;;;;;;;8.95;4.57;;;11.10;97.20;;;;;;1734133;28;20228;-72
2023/05/18 06:16:09;;;;;;;7.10;4.20;;;11.10;97.20;;;;;;1733499;28;20208;-72
2023/05/18 06:17:00;;;;;;;5.88;3.90;;;11.20;97.20;;;;;;1734361;28;20680;-72
2023/05/18 06:17:53;;;;;;;7.47;3.70;;;11.20;97.20;;;;;;1734268;28;20674;-71
2023/05/18 06:18:44;;;;;;;9.60;4.40;;;11.20;97.20;;;;;;1734231;28;20222;-72
2023/05/18 06:19:35;;;;;;;11.00;4.23;;;11.20;97.20;;;;;;1734245;28;20282;-72
2023/05/18 06:20:26;;;;;;;7.50;3.78;;;11.20;97.20;;;;;;1734146;28;20204;-71
2023/05/18 06:21:18;;;;;;;5.10;3.90;;;11.20;97.20;;;;;;1734316;28;20208;-71
2023/05/18 06:22:09;;;;;;;8.00;4.55;;;11.30;97.20;;;;;;1734170;28;20937;-72
2023/05/18 06:23:00;;;;;;;6.97;3.80;;;11.30;97.20;;;;;;1734258;28;20654;-73
2023/05/18 06:23:51;;;;;;;8.80;4.35;;;11.30;97.20;;;;;;1733883;28;20253;-74
2023/05/18 06:24:43;;;;;;;5.17;3.87;;;11.30;97.20;;;;;;1734274;28;20262;-71
2023/05/18 06:25:34;;;;;;;6.85;4.22;;;11.40;97.20;;;;;;1734146;28;20240;-71
2023/05/18 06:26:25;;;;;;;5.40;4.00;;;11.40;97.20;;;;;;1734148;28;20206;-72
2023/05/18 06:27:17;;;;;;;9.30;4.20;;;11.40;97.20;;;;;;1734256;28;20442;-71
2023/05/18 06:28:09;;;;;;;11.13;4.60;;;11.40;97.20;;;;;;1729562;28;20216;-71
2023/05/18 06:29:00;;;;;;;7.07;4.07;;;11.50;97.20;;;;;;1727439;28;20208;-72
2023/05/18 06:29:52;;;;;;;7.27;4.00;;;11.50;97.20;;;;;;1727365;28;20200;-72
2023/05/18 06:30:43;;;;;;;7.28;4.63;;;11.50;97.20;;;;;;1727246;28;20236;-71
2023/05/18 06:31:35;;;;;;;8.30;4.63;;;11.50;97.20;;;;;;1727393;28;20200;-72
2023/05/18 06:32:25;;;;;;;6.80;3.92;;;11.60;97.20;;;;;;1727453;28;20211;-71
2023/05/18 06:33:20;;;;;;;8.33;4.70;;;11.60;97.20;;;;;;1727023;28;20294;-71
2023/05/18 06:34:10;;;;;;;7.93;4.57;;;11.60;97.20;;;;;;1727313;28;20200;-72
2023/05/18 06:35:03;;;;;;;6.00;3.97;;;11.70;97.20;;;;;;1727363;28;20329;-72
2023/05/18 06:35:54;;;;;;;10.13;4.00;;;11.70;97.20;;;;;;1727447;28;20204;-72
2023/05/18 06:36:45;;;;;;;11.13;5.30;;;11.70;97.20;;;;;;1727401;28;20201;-72
2023/05/18 06:37:36;;;;;;;6.05;3.90;;;11.70;97.20;;;;;;1727329;28;20208;-73
2023/05/18 06:38:28;;;;;;;8.73;4.40;;;11.80;97.20;;;;;;1727318;28;20192;-74
2023/05/18 06:39:18;;;;;;;8.05;4.57;;;11.80;97.20;;;;;;1727407;28;20200;-71
2023/05/18 06:40:10;;;;;;;7.90;4.50;;;11.80;97.20;;;;;;1727604;28;20201;-72
2023/05/18 06:41:01;;;;;;;9.73;4.60;;;11.80;97.20;;;;;;1727347;28;20628;-72
2023/05/18 06:41:53;;;;;;;9.37;4.87;;;11.90;97.20;;;;;;1727287;28;20652;-71
2023/05/18 06:42:43;;;;;;;6.90;4.18;;;11.90;97.20;;;;;;1727336;28;20832;-71
2023/05/18 06:43:35;;;;;;;9.40;4.07;;;11.90;97.20;;;;;;1727039;28;20585;-71
2023/05/18 06:44:27;;;;;;;8.27;5.05;;;12.00;97.20;;;;;;1731327;28;20204;-73
2023/05/18 06:45:19;;;;;;;7.80;4.63;;;12.00;97.20;;;;;;1734062;28;20250;-71
2023/05/18 06:46:18;;;;;;;5.25;3.88;;;12.00;97.20;;;;;;1734103;28;20199;-72
2023/05/18 06:47:09;;;;;;;8.88;4.47;;;12.00;97.20;;;;;;1734096;28;20196;-71
2023/05/18 06:48:00;;;;;;;6.85;3.83;;;12.00;97.20;;;;;;1734114;28;20202;-71
2023/05/18 06:48:53;;;;;;;8.73;4.40;;;12.10;97.20;;;;;;1734113;28;20218;-71
2023/05/18 06:49:44;;;;;;;7.00;4.18;;;12.10;97.20;;;;;;1734044;28;20207;-71
2023/05/18 06:50:36;;;;;;;5.77;3.87;;;12.10;97.20;;;;;;1734068;28;20226;-71
2023/05/18 06:51:27;;;;;;;6.75;4.88;;;12.10;97.20;;;;;;1734097;28;20465;-73
2023/05/18 06:52:18;;;;;;;14.83;5.10;;;12.20;97.20;;;;;;1734181;28;20196;-74
2023/05/18 06:53:10;;;;;;;7.13;4.32;;;12.20;97.20;;;;;;1733954;28;20200;-75
2023/05/18 06:54:01;;;;;;;7.90;4.00;;;12.30;97.20;;;;;;1734153;28;20196;-71
2023/05/18 06:54:52;;;;;;;7.53;4.75;;;12.30;97.20;;;;;;1734083;28;20215;-71
2023/05/18 06:55:44;;;;;;;8.50;4.37;;;12.30;97.20;;;;;;1734143;28;20651;-71
2023/05/18 06:56:35;;;;;;;7.20;4.03;;;12.40;97.20;;;;;;1734085;28;20207;-74
2023/05/18 06:57:27;;;;;;;9.47;4.20;;;12.40;97.20;;;;;;1734059;28;20667;-73
2023/05/18 06:58:19;;;;;;;7.85;4.05;;;12.40;97.20;;;;;;1734091;28;20203;-72
2023/05/18 06:59:10;;;;;;;8.07;4.57;;;12.50;97.20;;;;;;1734072;28;20250;-72
2023/05/18 07:00:01;;;;;;;8.30;3.60;;;12.50;97.20;;;;;;1734134;28;20211;-72
2023/05/18 07:00:53;;;;;;;10.43;4.20;;;12.50;97.20;;;;;;1732251;28;20229;-72
2023/05/18 07:01:43;;;;;;;9.13;4.18;;;12.60;97.20;;;;;;1734108;28;20739;-73
2023/05/18 07:02:35;;;;;;;9.63;4.53;;;12.60;97.20;;;;;;1732575;28;20199;-72
2023/05/18 07:03:26;;;;;;;9.35;3.90;;;12.60;97.20;;;;;;1726971;28;20611;-72
2023/05/18 07:04:19;;;;;;;8.33;4.20;;;12.70;97.20;;;;;;1727292;28;20197;-72
2023/05/18 07:05:10;;;;;;;8.73;4.32;;;12.70;97.20;;;;;;1727156;28;20219;-72
2023/05/18 07:06:03;;;;;;;9.13;4.33;;;12.80;97.20;;;;;;1727268;28;20686;-71
2023/05/18 07:06:54;;;;;;;5.13;3.78;;;12.80;97.20;;;;;;1727237;28;20594;-73
2023/05/18 07:07:46;;;;;;;7.35;4.00;;;12.90;97.20;;;;;;1727263;28;20196;-71
2023/05/18 07:08:37;;;;;;;6.32;3.90;;;12.90;97.20;;;;;;1727295;28;20220;-72
2023/05/18 07:09:29;;;;;;;8.73;4.23;;;12.90;97.20;;;;;;1727240;28;20235;-71
2023/05/18 07:10:21;;;;;;;9.18;4.50;;;12.90;97.20;;;;;;1727161;28;20200;-71
2023/05/18 07:11:13;;;;;;;6.72;4.35;;;13.00;97.20;;;;;;1727242;28;20200;-72
2023/05/18 07:12:05;;;;;;;7.55;3.75;;;13.00;97.20;;;;;;1727180;28;20212;-72
2023/05/18 07:12:56;;;;;;;8.63;3.92;;;13.00;97.20;;;;;;1727263;28;20670;-71
2023/05/18 07:13:47;;;;;;;8.50;4.40;;;13.10;97.20;;;;;;1726885;28;20204;-72
2023/05/18 07:14:39;;;;;;;10.90;4.20;;;13.20;97.20;;;;;;1727322;28;20204;-73
2023/05/18 07:15:29;;;;;;;9.23;4.63;;;13.20;97.20;;;;;;1727204;28;20227;-71
2023/05/18 07:16:21;;;;;;;9.03;4.33;;;13.20;97.20;;;;;;1727234;28;20215;-73
2023/05/18 07:17:12;;;;;;;5.50;4.43;;;13.30;97.20;;;;;;1732444;28;20363;-71
2023/05/18 07:18:04;;;;;;;14.13;4.20;;;13.30;97.20;;;;;;1734082;28;20279;-72
2023/05/18 07:18:56;;;;;;;10.73;4.57;;;13.30;97.20;;;;;;1734025;28;20581;-72
2023/05/18 07:19:49;;;;;;;9.57;4.38;;;13.40;97.20;;;;;;1734018;28;20200;-72
2023/05/18 07:20:40;;;;;;;5.82;4.55;;;13.40;97.20;;;;;;1733968;28;20255;-72
2023/05/18 07:21:32;;;;;;;7.43;4.40;;;13.40;97.20;;;;;;1733973;28;20196;-72
2023/05/18 07:22:22;;;;;;;9.32;4.85;;;13.50;97.20;;;;;;1734007;28;20211;-73
2023/05/18 07:23:14;;;;;;;8.47;5.07;;;13.50;97.20;;;;;;1733614;28;20291;-72
2023/05/18 07:24:05;;;;;;;11.20;5.20;;;13.60;97.20;;;;;;1733968;28;20300;-73
2023/05/18 07:24:57;;;;;;;7.77;4.50;;;13.60;97.20;;;;;;1734013;28;20287;-72
2023/05/18 07:25:48;;;;;;;6.78;4.20;;;13.60;97.20;;;;;;1734011;28;20450;-72
2023/05/18 07:26:40;;;;;;;7.50;4.87;;;13.60;97.20;;;;;;1733951;28;20200;-72
2023/05/18 07:27:33;;;;;;;8.38;4.70;;;13.70;97.20;;;;;;1734749;28;20212;-73
2023/05/18 07:28:24;;;;;;;8.40;4.53;;;13.70;97.20;;;;;;1735275;28;20287;-72
2023/05/18 07:29:15;;;;;;;7.95;4.35;;;13.70;97.20;;;;;;1735336;28;20206;-72
2023/05/18 07:30:08;;;;;;;9.83;4.73;;;13.70;97.20;;;;;;1735320;28;20202;-72
2023/05/18 07:30:59;;;;;;;5.82;4.55;;;13.80;97.20;;;;;;1735164;28;20702;-72
2023/05/18 07:31:51;;;;;;;7.53;4.20;;;13.80;97.20;;;;;;1735343;28;20561;-72
2023/05/18 07:32:44;;;;;;;6.60;4.50;;;13.90;97.20;;;;;;1735311;28;20246;-72
2023/05/18 07:33:35;;;;;;;8.13;4.93;;;13.90;97.20;;;;;;1733409;28;20195;-72
2023/05/18 07:34:26;;;;;;;12.40;4.82;;;14.00;97.20;;;;;;1735326;28;20212;-72
2023/05/18 07:35:20;;;;;;;9.30;4.70;;;14.00;97.20;;;;;;1735199;28;20204;-73
2023/05/18 07:36:11;;;;;;;8.25;4.32;;;14.00;97.20;;;;;;1735234;28;20196;-73
2023/05/18 07:37:03;;;;;;;8.00;4.47;;;14.10;97.20;;;;;;1735331;28;20206;-72
2023/05/18 07:37:55;;;;;;;7.03;4.60;;;14.10;97.20;;;;;;1735327;28;20656;-72
2023/05/18 07:38:51;;;;;;;8.25;4.25;;;14.10;97.20;;;;;;1735257;28;20204;-73
2023/05/18 07:39:42;;;;;;;10.40;5.05;;;14.20;97.20;;;;;;1735281;28;20243;-72
2023/05/18 07:40:34;;;;;;;9.83;4.20;;;14.20;97.20;;;;;;1735260;28;20281;-72
2023/05/18 07:41:26;;;;;;;7.38;4.40;;;14.30;97.20;;;;;;1735224;28;20207;-71
2023/05/18 07:42:18;;;;;;;10.15;3.83;;;14.30;97.20;;;;;;1735383;28;20703;-72
2023/05/18 07:43:09;;;;;;;8.57;4.28;;;14.40;97.20;;;;;;1735154;28;20203;-75
2023/05/18 07:44:01;;;;;;;8.07;4.50;;;14.40;97.20;;;;;;1735141;28;20206;-72
2023/05/18 07:44:52;;;;;;;6.63;4.03;;;14.50;97.20;;;;;;1735247;28;20218;-72
2023/05/18 07:45:44;;;;;;;5.32;3.83;;;14.50;97.20;;;;;;1735468;28;20651;-72
2023/05/18 07:46:34;;;;;;;7.07;4.40;;;14.60;97.20;;;;;;1735371;28;20200;-72
2023/05/18 07:47:26;;;;;;;7.40;4.20;;;14.60;97.20;;;;;;1735181;28;20203;-73
2023/05/18 07:48:17;;;;;;;9.40;4.60;;;14.70;97.20;;;;;;1735119;28;20200;-72
2023/05/18 07:49:08;;;;;;;6.50;4.30;;;14.70;97.20;;;;;;1735259;28;20211;-73
2023/05/18 07:49:59;;;;;;;9.63;4.32;;;14.80;97.20;;;;;;1732324;28;20219;-73
2023/05/18 07:50:52;;;;;;;6.17;4.30;;;14.80;97.20;;;;;;1728393;28;20222;-72
2023/05/18 07:51:43;;;;;;;6.72;4.55;;;14.90;97.20;;;;;;1728443;28;20211;-73
2023/05/18 07:52:35;;;;;;;8.00;4.40;;;14.90;97.20;;;;;;1728415;28;20239;-73
2023/05/18 07:53:26;;;;;;;5.45;4.30;;;14.90;97.20;;;;;;1728009;28;20303;-71
2023/05/18 07:54:18;;;;;;;9.67;5.43;;;15.00;97.20;;;;;;1728379;28;20197;-72
2023/05/18 07:55:09;;;;;;;7.10;4.88;;;15.10;97.20;;;;;;1728394;28;20201;-72
2023/05/18 07:56:01;;;;;;;10.00;4.55;;;15.10;97.20;;;;;;1728414;28;20196;-73
2023/05/18 07:56:52;;;;;;;9.13;4.47;;;15.20;97.20;;;;;;1728334;28;20223;-73
2023/05/18 07:57:43;;;;;;;13.53;5.13;;;15.30;97.20;;;;;;1728421;28;20291;-72
2023/05/18 07:58:34;;;;;;;7.00;4.65;;;15.30;97.20;;;;;;1728481;28;20587;-72
2023/05/18 07:59:26;;;;;;;7.00;4.90;;;15.30;97.20;;;;;;1728429;28;20641;-72
2023/05/18 08:00:18;;;;;;;7.32;4.53;;;15.40;97.20;;;;;;1728335;28;20813;-72
2023/05/18 08:01:09;;;;;;;5.65;4.43;;;15.40;97.20;;;;;;1728371;28;20197;-72
2023/05/18 08:02:00;;;;;;;6.25;4.50;;;15.50;97.20;;;;;;1728347;28;20342;-71
2023/05/18 08:02:52;;;;;;;7.43;4.93;;;15.50;97.20;;;;;;1728364;28;20299;-71
2023/05/18 08:03:43;;;;;;;5.47;4.40;;;15.50;97.20;;;;;;1728164;28;20201;-71
2023/05/18 08:04:35;;;;;;;7.53;4.80;;;15.60;97.20;;;;;;1728371;28;20263;-72
2023/05/18 08:05:26;;;;;;;8.50;4.53;;;15.60;97.20;;;;;;1728197;28;20214;-73
2023/05/18 08:06:19;;;;;;;12.50;4.70;;;15.70;97.20;;;;;;1732120;28;20275;-72
2023/05/18 08:07:11;;;;;;;7.32;4.38;;;15.70;97.20;;;;;;1735085;28;20203;-72
2023/05/18 08:08:03;;;;;;;7.40;4.10;;;15.70;97.20;;;;;;1735130;28;20250;-73
2023/05/18 08:08:55;;;;;;;7.20;4.90;;;15.70;97.20;;;;;;1735003;28;20269;-72
2023/05/18 08:09:47;;;;;;;7.00;4.47;;;15.80;97.20;;;;;;1735380;28;20207;-73
2023/05/18 08:10:37;;;;;;;7.50;5.28;;;15.80;97.20;;;;;;1735065;28;20219;-72
2023/05/18 08:11:29;;;;;;;8.80;5.30;;;15.90;97.20;;;;;;1735060;28;20204;-71
2023/05/18 08:12:20;;;;;;;6.00;4.63;;;16.00;97.20;;;;;;1735107;28;20199;-73
2023/05/18 08:13:12;;;;;;;6.60;5.57;;;16.00;97.20;;;;;;1734770;28;20207;-72
2023/05/18 08:14:02;;;;;;;8.35;4.75;;;16.00;97.20;;;;;;1735099;28;20575;-73
2023/05/18 08:14:54;;;;;;;6.10;4.47;;;16.10;97.20;;;;;;1734935;28;20192;-73
2023/05/18 08:15:45;;;;;;;5.95;4.93;;;16.10;97.20;;;;;;1735052;28;20207;-72
2023/05/18 08:16:36;;;;;;;7.10;4.93;;;16.10;97.20;;;;;;1735095;28;20195;-72
2023/05/18 08:17:27;;;;;;;8.32;4.60;;;16.20;97.20;;;;;;1734963;28;20200;-72
2023/05/18 08:18:19;;;;;;;6.83;5.00;;;16.20;97.20;;;;;;1734983;28;20200;-72
2023/05/18 08:19:10;;;;;;;7.22;5.10;;;16.30;97.20;;;;;;1734989;28;20686;-72
2023/05/18 08:20:03;;;;;;;5.50;4.20;;;16.30;97.20;;;;;;1735015;28;20682;-72
2023/05/18 08:20:54;;;;;;;7.75;4.43;;;16.40;97.20;;;;;;1735085;28;20628;-72
2023/05/18 08:21:47;;;;;;;7.30;4.63;;;16.40;97.20;;;;;;1735031;28;20199;-72
2023/05/18 08:22:38;;;;;;;8.57;5.05;;;16.50;97.20;;;;;;1733330;28;20454;-73
2023/05/18 08:23:30;;;;;;;5.93;4.90;;;16.50;97.20;;;;;;1734633;28;20202;-72
2023/05/18 08:24:20;;;;;;;5.57;4.20;;;16.60;97.20;;;;;;1735001;28;20270;-73
2023/05/18 08:25:12;;;;;;;7.53;4.33;;;16.60;97.20;;;;;;1734854;28;20245;-73
2023/05/18 08:26:03;;;;;;;9.98;5.13;;;16.70;97.20;;;;;;1735022;28;20199;-73
2023/05/18 08:26:56;;;;;;;8.85;4.80;;;16.70;97.20;;;;;;1734967;28;20204;-73
2023/05/18 08:27:46;;;;;;;8.02;4.70;;;16.80;97.20;;;;;;1734940;28;20257;-73
2023/05/18 08:28:38;;;;;;;7.40;4.40;;;16.90;97.20;;;;;;1734985;28;20253;-73
2023/05/18 08:29:29;;;;;;;6.75;4.85;;;16.90;97.20;;;;;;1734944;28;20204;-72
2023/05/18 08:30:21;;;;;;;5.97;4.47;;;17.00;97.20;;;;;;1734713;28;20206;-72
2023/05/18 08:31:12;;;;;;;8.95;5.10;;;17.00;97.20;;;;;;1735027;28;20211;-72
2023/05/18 08:32:05;;;;;;;5.87;4.50;;;17.00;97.20;;;;;;1734997;28;20283;-73
2023/05/18 08:32:56;;;;;;;8.07;4.45;;;17.00;97.20;;;;;;1734948;28;20208;-72
2023/05/18 08:33:48;;;;;;;7.73;4.97;;;17.10;97.20;;;;;;1734620;28;20229;-73
2023/05/18 08:34:39;;;;;;;4.95;4.30;;;17.10;97.20;;;;;;1734900;28;20219;-73
2023/05/18 08:35:31;;;;;;;8.23;4.30;;;17.10;97.20;;;;;;1734883;28;20216;-72
2023/05/18 08:36:21;;;;;;;6.80;4.18;;;17.10;97.20;;;;;;1735028;28;20562;-72
2023/05/18 08:37:15;;;;;;;6.23;4.73;;;17.10;97.20;;;;;;1734921;28;20851;-72
2023/05/18 08:38:06;;;;;;;9.32;4.70;;;17.20;97.20;;;;;;1734916;28;20219;-73
2023/05/18 08:38:57;;;;;;;8.70;4.80;;;17.20;97.20;;;;;;1728093;28;20703;-72
2023/05/18 08:39:48;;;;;;;9.93;5.43;;;17.20;97.20;;;;;;1727962;28;20200;-72
2023/05/18 08:40:45;;;;;;;5.90;4.40;;;17.30;97.20;;;;;;1727894;28;20209;-73
2023/05/18 08:41:40;;;;;;;5.05;3.90;;;17.30;97.20;;;;;;1728111;28;20232;-73
2023/05/18 08:42:39;;;;;;;4.82;4.35;;;17.30;97.20;;;;;;1727996;28;20548;-72
2023/05/18 08:43:35;;;;;;;9.52;5.10;;;17.40;97.20;;;;;;1727749;28;20208;-72
2023/05/18 08:44:33;;;;;;;7.70;4.53;;;17.50;97.20;;;;;;1728086;28;20421;-73
2023/05/18 08:45:31;;;;;;;6.50;4.07;;;17.50;97.20;;;;;;1728023;28;20208;-72
2023/05/18 08:46:28;;;;;;;7.15;5.22;;;17.60;97.20;;;;;;1728017;28;20196;-73
2023/05/18 08:47:24;;;;;;;12.07;4.70;;;17.60;97.20;;;;;;1728008;28;20208;-73
2023/05/18 08:48:16;;;;;;;9.93;4.55;;;17.70;97.20;;;;;;1728023;28;20241;-73
2023/05/18 08:49:09;;;;;;;6.30;4.53;;;17.70;97.20;;;;;;1727877;28;20224;-72
2023/05/18 08:50:02;;;;;;;7.03;4.43;;;17.70;97.20;;;;;;1727968;28;20291;-72
2023/05/18 08:50:56;;;;;;;5.80;4.20;;;17.80;97.20;;;;;;1727845;28;20216;-72
2023/05/18 08:51:55;;;;;;;7.60;4.50;;;17.90;97.20;;;;;;1727954;28;20594;-73
2023/05/18 08:52:50;;;;;;;8.35;4.75;;;17.90;97.20;;;;;;1728115;28;20739;-72
2023/05/18 08:53:43;;;;;;;6.28;4.75;;;18.00;97.20;;;;;;1727707;28;20216;-73
2023/05/18 08:54:35;;;;;;;8.85;5.40;;;18.10;97.20;;;;;;1728737;28;20205;-73
2023/05/18 08:55:28;;;;;;;9.43;6.15;;;18.20;97.20;;;;;;1734746;28;20275;-73
2023/05/18 08:56:22;;;;;;;9.02;5.72;;;18.30;97.20;;;;;;1735035;28;20584;-72
2023/05/18 08:57:16;;;;;;;7.47;5.72;;;18.40;97.20;;;;;;1734852;28;20278;-73
2023/05/18 08:58:09;;;;;;;11.45;5.50;;;18.50;97.20;;;;;;1734856;28;20207;-72
2023/05/18 08:59:06;;;;;;;7.80;4.75;;;18.60;97.20;;;;;;1734821;28;20203;-73
2023/05/18 08:59:59;;;;;;;9.07;4.53;;;18.70;97.20;;;;;;1734782;28;20257;-72
2023/05/18 09:00:53;;;;;;;9.73;4.80;;;18.80;97.20;;;;;;1734943;28;20222;-72
2023/05/18 09:01:44;;;;;;;10.98;5.50;;;18.80;97.20;;;;;;1734837;28;20215;-73
2023/05/18 09:02:37;;;;;;;7.87;5.23;;;18.70;97.20;;;;;;1734747;28;20283;-72
2023/05/18 09:03:29;;;;;;;6.88;4.95;;;18.60;97.20;;;;;;1734622;28;20442;-72
2023/05/18 09:04:21;;;;;;;6.72;4.70;;;18.50;97.20;;;;;;1734999;28;20283;-73
2023/05/18 09:05:13;;;;;;;7.13;4.50;;;18.40;97.20;;;;;;1734696;28;20207;-73
2023/05/18 09:06:06;;;;;;;9.00;5.53;;;18.30;97.20;;;;;;1734911;28;20628;-72
2023/05/18 09:06:58;;;;;;;5.93;4.55;;;18.40;97.20;;;;;;1734899;28;20202;-72
2023/05/18 09:07:52;;;;;;;7.10;5.15;;;18.40;97.20;;;;;;1734907;28;20199;-72
2023/05/18 09:08:44;;;;;;;12.68;5.10;;;18.40;97.20;;;;;;1734782;28;20208;-72
2023/05/18 09:09:37;;;;;;;7.75;4.85;;;18.50;97.20;;;;;;1734709;28;20227;-72
2023/05/18 09:10:30;;;;;;;9.55;5.00;;;18.60;97.20;;;;;;1734742;28;20208;-72
2023/05/18 09:11:24;;;;;;;8.02;4.75;;;18.70;97.20;;;;;;1734440;28;20574;-72
2023/05/18 09:12:17;;;;;;;4.95;4.30;;;18.70;97.20;;;;;;1734739;28;20212;-72
2023/05/18 09:13:10;;;;;;;8.82;4.25;;;18.70;97.20;;;;;;1734740;28;20293;-72
2023/05/18 09:14:02;;;;;;;6.80;4.70;;;18.70;97.20;;;;;;1734700;28;20199;-72
2023/05/18 09:14:53;;;;;;;8.27;4.57;;;18.60;97.20;;;;;;1734738;28;20280;-72
2023/05/18 09:15:45;;;;;;;8.15;4.72;;;18.60;97.20;;;;;;1734787;28;20283;-73
2023/05/18 09:16:37;;;;;;;6.15;4.70;;;18.60;97.20;;;;;;1734852;28;20207;-73
2023/05/18 09:17:28;;;;;;;8.00;5.28;;;18.70;97.20;;;;;;1734732;28;20208;-73
2023/05/18 09:18:20;;;;;;;8.97;4.97;;;18.80;97.20;;;;;;1734732;28;20210;-73
2023/05/18 09:19:10;;;;;;;7.28;4.65;;;18.90;97.20;;;;;;1734755;28;20663;-72
2023/05/18 09:20:04;;;;;;;5.53;4.40;;;18.90;97.20;;;;;;1734779;28;20547;-72
2023/05/18 09:20:55;;;;;;;7.32;4.40;;;18.90;97.20;;;;;;1734671;28;20295;-72
2023/05/18 09:21:47;;;;;;;8.90;4.80;;;18.90;97.20;;;;;;1734800;28;20257;-72
2023/05/18 09:22:39;;;;;;;7.93;4.07;;;18.80;97.20;;;;;;1734749;28;20686;-72
2023/05/18 09:23:33;;;;;;;6.05;4.15;;;18.80;97.20;;;;;;1734422;28;20208;-72
2023/05/18 09:24:23;;;;;;;8.27;4.28;;;18.80;97.20;;;;;;1734713;28;20210;-73
2023/05/18 09:25:16;;;;;;;8.20;4.00;;;18.80;97.20;;;;;;1734685;28;20203;-73
2023/05/18 09:26:08;;;;;;;9.52;4.20;;;18.80;97.20;;;;;;1734774;28;20207;-72
2023/05/18 09:27:00;;;;;;;9.30;4.60;;;18.80;97.20;;;;;;1734438;28;20238;-72
2023/05/18 09:27:52;;;;;;;5.70;4.05;;;18.80;97.20;;;;;;1727865;28;20212;-72
2023/05/18 09:28:44;;;;;;;8.88;4.18;;;18.80;97.20;;;;;;1727904;28;20208;-73
2023/05/18 09:29:34;;;;;;;10.15;4.40;;;18.80;97.20;;;;;;1727719;28;20224;-72
2023/05/18 09:30:26;;;;;;;5.87;3.83;;;18.80;97.20;;;;;;1727600;28;20201;-72